createdAt,value
2022-10-17T00:00:58.965Z,98283.40
2022-10-17T00:03:25.701Z,98277.80
2022-10-17T00:05:52.450Z,98281.40
2022-10-17T00:08:20.188Z,98274.20
2022-10-17T00:11:00.914Z,98273.60
2022-10-17T00:13:28.999Z,98280.00
2022-10-17T00:15:55.955Z,98280.20
2022-10-17T00:18:23.084Z,98273.60
2022-10-17T00:20:50.745Z,98272.80
2022-10-17T00:23:18.251Z,98273.00
2022-10-17T00:25:45.657Z,98274.20
2022-10-17T00:28:15.061Z,98270.40
2022-10-17T00:30:42.037Z,98264.00
2022-10-17T00:33:08.845Z,98262.00
2022-10-17T00:35:35.782Z,98270.00
2022-10-17T00:38:02.655Z,98264.80
2022-10-17T00:40:29.453Z,98261.60
2022-10-17T00:42:56.181Z,98263.80
2022-10-17T00:45:32.192Z,98265.20
2022-10-17T00:48:05.624Z,98266.80
2022-10-17T00:50:33.835Z,98262.40
2022-10-17T00:53:04.456Z,98263.80
2022-10-17T00:55:42.360Z,98255.00
2022-10-17T00:58:09.337Z,98256.00
2022-10-17T01:00:37.095Z,98254.60
2022-10-17T01:03:04.414Z,98259.80
2022-10-17T01:05:31.349Z,98258.40
2022-10-17T01:07:58.324Z,98261.80
2022-10-17T01:10:39.816Z,98260.00
2022-10-17T01:13:21.985Z,98260.00
2022-10-17T01:16:30.153Z,98263.80
2022-10-17T01:19:36.411Z,98264.00
2022-10-17T01:22:14.108Z,98262.40
2022-10-17T01:25:11.620Z,98264.20
2022-10-17T01:28:07.200Z,98256.60
2022-10-17T01:31:18.158Z,98257.60
2022-10-17T01:33:59.978Z,98255.00
2022-10-17T01:37:10.405Z,98248.40
2022-10-17T01:39:50.166Z,98242.80
2022-10-17T01:42:38.792Z,98241.40
2022-10-17T01:45:16.704Z,98241.80
2022-10-17T01:47:47.825Z,98243.20
2022-10-17T01:50:24.138Z,98246.20
2022-10-17T01:53:02.641Z,98245.60
2022-10-17T01:55:36.672Z,98250.20
2022-10-17T01:58:31.117Z,98245.80
2022-10-17T02:01:02.225Z,98252.20
2022-10-17T02:03:34.545Z,98250.20
2022-10-17T02:06:02.437Z,98248.00
2022-10-17T02:08:44.668Z,98247.20
2022-10-17T02:11:17.889Z,98249.00
2022-10-17T02:14:22.008Z,98251.40
2022-10-17T02:17:23.800Z,98245.60
2022-10-17T02:20:25.140Z,98247.00
2022-10-17T02:22:58.745Z,98250.40
2022-10-17T02:25:58.116Z,98248.00
2022-10-17T02:28:57.964Z,98249.20
2022-10-17T02:31:38.710Z,98248.20
2022-10-17T02:34:28.104Z,98252.00
2022-10-17T02:37:00.555Z,98251.80
2022-10-17T02:39:30.515Z,98249.80
2022-10-17T02:42:03.531Z,98253.40
2022-10-17T02:44:33.501Z,98254.40
2022-10-17T02:47:26.860Z,98255.20
2022-10-17T02:49:56.840Z,98261.40
2022-10-17T02:52:59.392Z,98260.20
2022-10-17T02:55:34.491Z,98267.00
2022-10-17T02:58:31.848Z,98268.80
2022-10-17T03:00:59.530Z,98264.60
2022-10-17T03:03:30.006Z,98275.20
2022-10-17T03:06:00.136Z,98279.60
2022-10-17T03:08:27.167Z,98278.80
2022-10-17T03:10:55.688Z,98283.00
2022-10-17T03:13:22.857Z,98282.80
2022-10-17T03:15:49.857Z,98278.80
2022-10-17T03:18:17.105Z,98285.60
2022-10-17T03:20:44.368Z,98289.40
2022-10-17T03:23:11.188Z,98282.20
2022-10-17T03:25:38.172Z,98289.00
2022-10-17T03:28:05.712Z,98288.20
2022-10-17T03:30:33.597Z,98287.40
2022-10-17T03:33:01.054Z,98291.20
2022-10-17T03:35:27.903Z,98297.00
2022-10-17T03:37:58.322Z,98296.80
2022-10-17T03:40:26.291Z,98294.40
2022-10-17T03:42:53.104Z,98308.80
2022-10-17T03:45:19.962Z,98307.60
2022-10-17T03:47:46.945Z,98303.20
2022-10-17T03:50:15.081Z,98306.00
2022-10-17T03:52:42.224Z,98312.20
2022-10-17T03:55:09.280Z,98309.80
2022-10-17T03:57:37.157Z,98303.20
2022-10-17T04:00:06.153Z,98300.20
2022-10-17T04:02:41.593Z,98307.40
2022-10-17T04:05:10.792Z,98304.60
2022-10-17T04:07:37.841Z,98300.40
2022-10-17T04:10:05.684Z,98307.40
2022-10-17T04:12:32.751Z,98314.40
2022-10-17T04:14:59.886Z,98314.20
2022-10-17T04:17:27.255Z,98317.80
2022-10-17T04:19:54.201Z,98312.40
2022-10-17T04:22:22.783Z,98316.00
2022-10-17T04:24:49.549Z,98319.40
2022-10-17T04:27:26.173Z,98320.40
2022-10-17T04:29:53.660Z,98328.00
2022-10-17T04:32:23.469Z,98327.20
2022-10-17T04:34:56.072Z,98328.00
2022-10-17T04:37:23.273Z,98332.20
2022-10-17T04:39:51.365Z,98328.80
2022-10-17T04:42:18.205Z,98329.20
2022-10-17T04:44:45.447Z,98332.40
2022-10-17T04:47:12.846Z,98330.20
2022-10-17T04:52:11.489Z,98339.60
2022-10-17T04:54:45.934Z,98342.60
2022-10-17T04:57:13.943Z,98340.80
2022-10-17T04:59:41.869Z,98339.40
2022-10-17T05:02:27.416Z,98337.60
2022-10-17T05:04:55.244Z,98338.80
2022-10-17T05:07:22.166Z,98336.40
2022-10-17T05:10:10.507Z,98338.20
2022-10-17T05:12:37.393Z,98338.80
2022-10-17T05:15:06.517Z,98339.60
2022-10-17T05:17:33.696Z,98339.80
2022-10-17T05:20:00.642Z,98342.80
2022-10-17T05:22:28.458Z,98347.20
2022-10-17T05:24:55.480Z,98350.80
2022-10-17T05:27:22.265Z,98354.00
2022-10-17T05:29:49.065Z,98351.80
2022-10-17T05:32:23.661Z,98354.40
2022-10-17T05:34:50.505Z,98360.00
2022-10-17T05:37:17.612Z,98356.00
2022-10-17T05:39:50.709Z,98362.80
2022-10-17T05:42:18.966Z,98365.60
2022-10-17T05:44:45.942Z,98365.60
2022-10-17T05:47:13.416Z,98370.80
2022-10-17T05:49:47.329Z,98377.60
2022-10-17T05:52:18.625Z,98377.00
2022-10-17T05:55:04.017Z,98382.00
2022-10-17T05:57:31.641Z,98388.00
2022-10-17T05:59:59.267Z,98390.20
2022-10-17T06:02:27.109Z,98397.00
2022-10-17T06:04:54.898Z,98400.20
2022-10-17T06:07:23.072Z,98392.00
2022-10-17T06:09:50.558Z,98390.80
2022-10-17T06:12:17.990Z,98394.00
2022-10-17T06:14:45.428Z,98392.20
2022-10-17T06:17:15.978Z,98397.20
2022-10-17T06:19:44.964Z,98403.20
2022-10-17T06:22:14.782Z,98408.40
2022-10-17T06:24:42.743Z,98413.40
2022-10-17T06:27:11.911Z,98411.20
2022-10-17T06:29:40.782Z,98409.80
2022-10-17T06:32:09.967Z,98409.60
2022-10-17T06:34:40.410Z,98411.00
2022-10-17T06:37:07.282Z,98417.20
2022-10-17T06:39:36.592Z,98416.00
2022-10-17T06:42:07.740Z,98413.40
2022-10-17T06:44:57.622Z,98419.40
2022-10-17T06:47:40.757Z,98416.00
2022-10-17T06:50:30.718Z,98417.80
2022-10-17T06:53:12.216Z,98421.80
2022-10-17T06:56:09.417Z,98424.40
2022-10-17T06:58:54.865Z,98429.20
2022-10-17T07:01:46.272Z,98434.20
2022-10-17T07:04:15.241Z,98435.40
2022-10-17T07:06:42.408Z,98434.20
2022-10-17T07:09:15.434Z,98429.40
2022-10-17T07:11:42.283Z,98431.60
2022-10-17T07:14:09.118Z,98430.20
2022-10-17T07:16:36.141Z,98430.40
2022-10-17T07:19:09.645Z,98434.00
2022-10-17T07:21:39.371Z,98439.40
2022-10-17T07:24:08.019Z,98440.40
2022-10-17T07:26:35.067Z,98441.20
2022-10-17T07:29:02.473Z,98441.80
2022-10-17T07:31:40.111Z,98446.20
2022-10-17T07:34:08.057Z,98444.60
2022-10-17T07:36:34.922Z,98441.80
2022-10-17T07:39:04.023Z,98446.80
2022-10-17T07:41:32.131Z,98442.80
2022-10-17T07:43:59.038Z,98444.00
2022-10-17T07:46:31.927Z,98452.80
2022-10-17T07:48:59.383Z,98446.20
2022-10-17T07:51:27.030Z,98449.60
2022-10-17T07:53:53.986Z,98448.60
2022-10-17T07:56:24.720Z,98444.80
2022-10-17T07:58:54.406Z,98454.20
2022-10-17T08:01:21.989Z,98443.00
2022-10-17T08:03:48.917Z,98450.00
2022-10-17T08:06:15.880Z,98451.80
2022-10-17T08:08:44.067Z,98452.00
2022-10-17T08:11:14.378Z,98445.20
2022-10-17T08:13:42.471Z,98453.40
2022-10-17T08:16:12.752Z,98453.60
2022-10-17T08:18:42.786Z,98450.40
2022-10-17T08:21:13.649Z,98455.00
2022-10-17T08:23:42.082Z,98449.40
2022-10-17T08:26:13.517Z,98449.80
2022-10-17T08:28:41.065Z,98460.60
2022-10-17T08:31:15.887Z,98455.40
2022-10-17T08:33:43.093Z,98458.60
2022-10-17T08:36:12.398Z,98456.60
2022-10-17T08:38:43.027Z,98458.40
2022-10-17T08:41:52.238Z,98458.60
2022-10-17T08:44:50.539Z,98455.80
2022-10-17T08:47:34.471Z,98453.60
2022-10-17T08:50:11.947Z,98450.20
2022-10-17T08:52:49.757Z,98444.60
2022-10-17T08:55:31.278Z,98443.20
2022-10-17T08:57:59.440Z,98451.00
2022-10-17T09:00:31.128Z,98445.40
2022-10-17T09:03:07.152Z,98439.40
2022-10-17T09:05:56.110Z,98443.00
2022-10-17T09:08:35.721Z,98437.80
2022-10-17T09:11:42.029Z,98442.40
2022-10-17T09:14:26.727Z,98444.60
2022-10-17T09:17:16.865Z,98443.80
2022-10-17T09:19:53.471Z,98445.20
2022-10-17T09:22:30.053Z,98450.40
2022-10-17T09:25:09.412Z,98448.60
2022-10-17T09:27:46.642Z,98455.00
2022-10-17T09:30:45.288Z,98464.40
2022-10-17T09:33:34.394Z,98455.80
2022-10-17T09:36:09.817Z,98455.40
2022-10-17T09:38:48.828Z,98457.20
2022-10-17T09:44:30.380Z,98460.60
2022-10-17T09:47:20.530Z,98450.40
2022-10-17T09:49:49.713Z,98447.80
2022-10-17T09:52:28.604Z,98454.60
2022-10-17T09:55:50.436Z,98454.20
2022-10-17T09:58:17.214Z,98451.00
2022-10-17T10:00:47.626Z,98448.40
2022-10-17T10:03:21.649Z,98448.20
2022-10-17T10:06:05.089Z,98455.20
2022-10-17T10:08:49.336Z,98456.20
2022-10-17T10:11:18.146Z,98456.00
2022-10-17T10:13:49.269Z,98455.80
2022-10-17T10:16:50.652Z,98455.20
2022-10-17T10:19:36.605Z,98448.00
2022-10-17T10:22:31.236Z,98446.80
2022-10-17T10:25:11.289Z,98451.00
2022-10-17T10:27:41.550Z,98445.20
2022-10-17T10:30:19.565Z,98442.20
2022-10-17T10:32:49.149Z,98444.20
2022-10-17T10:35:28.813Z,98442.80
2022-10-17T10:37:59.690Z,98435.20
2022-10-17T10:40:33.442Z,98438.40
2022-10-17T10:43:05.331Z,98445.00
2022-10-17T10:45:53.845Z,98439.20
2022-10-17T10:48:52.182Z,98442.00
2022-10-17T10:51:33.253Z,98440.20
2022-10-17T10:54:16.381Z,98442.20
2022-10-17T10:57:00.492Z,98441.00
2022-10-17T10:59:41.186Z,98440.20
2022-10-17T11:02:07.956Z,98439.80
2022-10-17T11:04:47.530Z,98443.00
2022-10-17T11:07:23.581Z,98442.00
2022-10-17T11:10:17.873Z,98443.20
2022-10-17T11:13:13.957Z,98447.80
2022-10-17T11:15:51.648Z,98448.80
2022-10-17T11:18:30.373Z,98443.60
2022-10-17T11:21:16.658Z,98444.80
2022-10-17T11:24:11.775Z,98445.20
2022-10-17T11:27:00.702Z,98448.00
2022-10-17T11:29:35.504Z,98445.80
2022-10-17T11:32:11.392Z,98444.40
2022-10-17T11:34:46.333Z,98445.00
2022-10-17T11:37:21.876Z,98444.20
2022-10-17T11:40:02.652Z,98444.20
2022-10-17T11:42:38.910Z,98441.60
2022-10-17T11:45:19.117Z,98430.00
2022-10-17T11:47:58.927Z,98432.40
2022-10-17T11:53:34.370Z,98434.80
2022-10-17T11:56:02.719Z,98437.00
2022-10-17T11:58:55.613Z,98431.00
2022-10-17T12:01:57.127Z,98427.40
2022-10-17T12:04:51.787Z,98429.20
2022-10-17T12:07:58.758Z,98427.40
2022-10-17T12:11:18.780Z,98419.20
2022-10-17T12:13:54.521Z,98418.80
2022-10-17T12:16:21.241Z,98416.40
2022-10-17T12:19:10.789Z,98415.20
2022-10-17T12:22:13.262Z,98418.00
2022-10-17T12:24:44.654Z,98415.60
2022-10-17T12:27:45.877Z,98409.00
2022-10-17T12:30:12.827Z,98409.60
2022-10-17T12:33:07.087Z,98411.40
2022-10-17T12:35:38.302Z,98413.60
2022-10-17T12:38:21.953Z,98410.80
2022-10-17T12:40:52.519Z,98411.00
2022-10-17T12:43:28.582Z,98411.40
2022-10-17T12:45:58.470Z,98420.80
2022-10-17T12:48:34.260Z,98421.20
2022-10-17T12:51:37.332Z,98420.80
2022-10-17T12:54:15.845Z,98420.20
2022-10-17T12:56:47.797Z,98417.60
2022-10-17T12:59:22.624Z,98429.00
2022-10-17T13:01:55.394Z,98432.20
2022-10-17T13:04:23.600Z,98427.20
2022-10-17T13:06:57.619Z,98426.40
2022-10-17T13:09:42.962Z,98429.20
2022-10-17T13:12:19.070Z,98428.00
2022-10-17T13:14:48.012Z,98424.60
2022-10-17T13:17:30.836Z,98425.40
2022-10-17T13:19:58.489Z,98423.80
2022-10-17T13:22:32.902Z,98419.80
2022-10-17T13:25:15.346Z,98422.40
2022-10-17T13:27:43.453Z,98417.20
2022-10-17T13:30:35.966Z,98412.00
2022-10-17T13:33:04.117Z,98408.20
2022-10-17T13:38:32.527Z,98414.40
2022-10-17T13:41:29.980Z,98414.20
2022-10-17T13:43:51.314Z,98418.60
2022-10-17T13:46:38.343Z,98415.80
2022-10-17T13:49:36.680Z,98419.80
2022-10-17T13:52:07.644Z,98421.40
2022-10-17T13:54:42.248Z,98416.20
2022-10-17T13:57:26.560Z,98409.40
2022-10-17T14:00:10.029Z,98412.60
2022-10-17T14:02:41.999Z,98413.00
2022-10-17T14:05:17.109Z,98412.00
2022-10-17T14:08:12.075Z,98412.60
2022-10-17T14:10:43.445Z,98415.80
2022-10-17T14:13:27.482Z,98415.20
2022-10-17T14:15:57.458Z,98420.60
2022-10-17T14:18:35.702Z,98420.40
2022-10-17T14:24:33.554Z,98419.60
2022-10-17T14:27:00.725Z,98425.40
2022-10-17T14:29:50.278Z,98425.00
2022-10-17T14:32:19.974Z,98423.60
2022-10-17T14:34:57.493Z,98424.20
2022-10-17T14:37:34.662Z,98423.00
2022-10-17T14:40:06.414Z,98421.20
2022-10-17T14:42:40.593Z,98420.20
2022-10-17T14:45:14.462Z,98418.20
2022-10-17T14:47:44.128Z,98419.00
2022-10-17T14:50:11.098Z,98421.80
2022-10-17T14:52:39.099Z,98422.20
2022-10-17T14:55:26.268Z,98424.80
2022-10-17T14:57:53.436Z,98428.60
2022-10-17T15:00:22.925Z,98426.60
2022-10-17T15:02:52.621Z,98426.80
2022-10-17T15:05:20.498Z,98424.40
2022-10-17T15:07:47.457Z,98425.00
2022-10-17T15:10:36.302Z,98425.40
2022-10-17T15:13:38.542Z,98423.40
2022-10-17T15:15:52.561Z,98417.20
2022-10-17T15:18:19.995Z,98417.00
2022-10-17T15:20:46.847Z,98414.80
2022-10-17T15:23:13.680Z,98417.60
2022-10-17T15:25:40.722Z,98421.20
2022-10-17T15:28:08.117Z,98421.00
2022-10-17T15:30:36.987Z,98423.80
2022-10-17T15:33:04.153Z,98424.40
2022-10-17T15:35:31.362Z,98422.00
2022-10-17T15:37:58.429Z,98423.00
2022-10-17T15:40:30.376Z,98427.00
2022-10-17T15:42:57.726Z,98426.00
2022-10-17T15:45:25.117Z,98424.40
2022-10-17T15:47:56.942Z,98426.40
2022-10-17T15:50:23.782Z,98424.60
2022-10-17T15:52:51.245Z,98427.00
2022-10-17T15:55:19.433Z,98422.20
2022-10-17T15:57:48.985Z,98427.20
2022-10-17T16:00:21.336Z,98432.00
2022-10-17T16:02:49.932Z,98434.80
2022-10-17T16:05:26.605Z,98437.40
2022-10-17T16:07:54.724Z,98441.40
2022-10-17T16:10:23.349Z,98444.20
2022-10-17T16:12:50.779Z,98443.80
2022-10-17T16:15:24.990Z,98449.20
2022-10-17T16:17:56.413Z,98453.80
2022-10-17T16:20:25.518Z,98461.60
2022-10-17T16:22:59.983Z,98462.00
2022-10-17T16:25:30.528Z,98465.20
2022-10-17T16:28:00.477Z,98471.00
2022-10-17T16:30:31.976Z,98470.60
2022-10-17T16:32:59.908Z,98477.60
2022-10-17T16:35:33.408Z,98481.00
2022-10-17T16:38:06.489Z,98479.00
2022-10-17T16:40:34.154Z,98473.80
2022-10-17T16:43:00.949Z,98475.20
2022-10-17T16:45:27.874Z,98478.40
2022-10-17T16:47:55.300Z,98483.20
2022-10-17T16:50:22.310Z,98486.60
2022-10-17T16:52:49.182Z,98485.20
2022-10-17T16:55:18.889Z,98490.00
2022-10-17T16:57:46.144Z,98488.80
2022-10-17T17:00:15.875Z,98495.40
2022-10-17T17:02:43.313Z,98492.20
2022-10-17T17:05:10.859Z,98494.60
2022-10-17T17:07:37.694Z,98501.20
2022-10-17T17:10:05.372Z,98499.60
2022-10-17T17:12:35.507Z,98501.20
2022-10-17T17:15:03.869Z,98503.20
2022-10-17T17:17:48.751Z,98505.80
2022-10-17T17:20:17.813Z,98506.20
2022-10-17T17:22:44.613Z,98503.00
2022-10-17T17:25:11.441Z,98506.80
2022-10-17T17:27:38.248Z,98506.00
2022-10-17T17:30:05.813Z,98512.60
2022-10-17T17:32:33.113Z,98516.40
2022-10-17T17:35:00.323Z,98523.00
2022-10-17T17:37:27.410Z,98515.20
2022-10-17T17:39:54.410Z,98512.60
2022-10-17T17:42:21.249Z,98514.80
2022-10-17T17:44:49.938Z,98522.00
2022-10-17T17:47:16.788Z,98524.00
2022-10-17T17:49:43.624Z,98528.80
2022-10-17T17:52:10.570Z,98526.20
2022-10-17T17:54:40.757Z,98527.20
2022-10-17T17:57:08.073Z,98530.60
2022-10-17T17:59:35.521Z,98531.80
2022-10-17T18:02:03.047Z,98531.00
2022-10-17T18:04:30.446Z,98531.00
2022-10-17T18:06:57.441Z,98530.20
2022-10-17T18:09:24.611Z,98529.40
2022-10-17T18:11:52.075Z,98528.60
2022-10-17T18:14:23.793Z,98533.40
2022-10-17T18:16:51.724Z,98531.00
2022-10-17T18:19:18.994Z,98527.80
2022-10-17T18:21:48.803Z,98532.20
2022-10-17T18:24:16.813Z,98535.80
2022-10-17T18:26:44.347Z,98538.60
2022-10-17T18:29:13.115Z,98539.20
2022-10-17T18:31:40.031Z,98545.20
2022-10-17T18:34:07.061Z,98546.60
2022-10-17T18:36:35.632Z,98549.00
2022-10-17T18:39:03.955Z,98552.20
2022-10-17T18:41:32.019Z,98548.40
2022-10-17T18:43:59.135Z,98551.80
2022-10-17T18:46:41.055Z,98555.20
2022-10-17T18:49:11.177Z,98556.00
2022-10-17T18:51:38.593Z,98554.40
2022-10-17T18:54:07.690Z,98552.80
2022-10-17T18:56:35.267Z,98550.80
2022-10-17T18:59:02.161Z,98550.20
2022-10-17T19:01:29.257Z,98553.40
2022-10-17T19:03:59.256Z,98554.80
2022-10-17T19:06:32.001Z,98556.80
2022-10-17T19:09:01.846Z,98562.40
2022-10-17T19:11:31.576Z,98565.80
2022-10-17T19:14:03.495Z,98565.20
2022-10-17T19:16:35.718Z,98564.80
2022-10-17T19:19:15.526Z,98570.20
2022-10-17T19:21:43.380Z,98571.60
2022-10-17T19:24:18.949Z,98568.00
2022-10-17T19:26:50.358Z,98568.20
2022-10-17T19:29:18.384Z,98572.80
2022-10-17T19:31:46.734Z,98570.40
2022-10-17T19:34:15.057Z,98567.00
2022-10-17T19:36:42.499Z,98572.40
2022-10-17T19:39:23.348Z,98574.00
2022-10-17T19:41:50.206Z,98577.40
2022-10-17T19:44:17.765Z,98580.40
2022-10-17T19:46:46.906Z,98574.60
2022-10-17T19:49:14.716Z,98572.40
2022-10-17T19:51:41.778Z,98572.40
2022-10-17T19:54:09.398Z,98576.80
2022-10-17T19:56:38.292Z,98577.40
2022-10-17T19:59:06.715Z,98575.40
2022-10-17T20:01:39.055Z,98576.80
2022-10-17T20:04:08.557Z,98577.20
2022-10-17T20:06:35.777Z,98577.60
2022-10-17T20:09:05.079Z,98575.80
2022-10-17T20:11:32.430Z,98572.60
2022-10-17T20:14:01.976Z,98572.80
2022-10-17T20:16:32.598Z,98575.40
2022-10-17T20:19:07.578Z,98579.20
2022-10-17T20:21:36.777Z,98576.60
2022-10-17T20:24:07.048Z,98579.60
2022-10-17T20:26:39.629Z,98575.60
2022-10-17T20:29:16.456Z,98577.80
2022-10-17T20:31:45.911Z,98578.20
2022-10-17T20:34:16.069Z,98577.80
2022-10-17T20:36:43.613Z,98576.60
2022-10-17T20:39:14.055Z,98575.40
2022-10-17T20:41:41.800Z,98577.60
2022-10-17T20:44:09.873Z,98579.40
2022-10-17T20:46:38.477Z,98580.20
2022-10-17T20:49:13.173Z,98578.00
2022-10-17T20:51:40.122Z,98578.20
2022-10-17T20:54:07.157Z,98577.40
2022-10-17T20:56:35.620Z,98578.80
2022-10-17T20:59:15.021Z,98577.60
2022-10-17T21:01:42.404Z,98580.00
2022-10-17T21:04:44.093Z,98577.80
2022-10-17T21:06:56.978Z,98579.80
2022-10-17T21:09:24.470Z,98576.20
2022-10-17T21:11:55.147Z,98580.20
2022-10-17T21:14:23.951Z,98577.00
2022-10-17T21:16:52.386Z,98578.60
2022-10-17T21:19:21.657Z,98576.40
2022-10-17T21:21:48.537Z,98582.40
2022-10-17T21:24:18.156Z,98579.80
2022-10-17T21:26:47.826Z,98579.40
2022-10-17T21:29:15.087Z,98583.20
2022-10-17T21:31:44.681Z,98592.20
2022-10-17T21:34:26.336Z,98591.00
2022-10-17T21:36:53.316Z,98590.60
2022-10-17T21:39:21.962Z,98589.40
2022-10-17T21:41:48.829Z,98591.20
2022-10-17T21:44:20.341Z,98594.20
2022-10-17T21:46:48.034Z,98598.40
2022-10-17T21:49:18.604Z,98591.40
2022-10-17T21:51:47.687Z,98592.80
2022-10-17T21:54:16.527Z,98585.40
2022-10-17T21:56:43.746Z,98595.40
2022-10-17T21:59:11.599Z,98583.00
2022-10-17T22:01:41.882Z,98587.40
2022-10-17T22:04:13.951Z,98588.60
2022-10-17T22:06:43.310Z,98587.00
2022-10-17T22:09:16.277Z,98585.60
2022-10-17T22:11:48.338Z,98590.20
2022-10-17T22:14:18.955Z,98589.20
2022-10-17T22:16:47.602Z,98591.40
2022-10-17T22:19:22.059Z,98588.80
2022-10-17T22:21:49.723Z,98586.40
2022-10-17T22:26:51.817Z,98582.40
2022-10-17T22:29:19.070Z,98585.00
2022-10-17T22:31:45.996Z,98581.80
2022-10-17T22:34:15.832Z,98582.40
2022-10-17T22:36:43.487Z,98579.20
2022-10-17T22:39:11.452Z,98579.20
2022-10-17T22:41:38.403Z,98578.80
2022-10-17T22:44:06.775Z,98581.00
2022-10-17T22:46:33.912Z,98578.20
2022-10-17T22:49:00.899Z,98580.20
2022-10-17T22:51:28.158Z,98578.00
2022-10-17T22:53:55.058Z,98578.60
2022-10-17T22:56:23.938Z,98580.60
2022-10-17T22:58:51.786Z,98578.40
2022-10-17T23:01:23.317Z,98579.40
2022-10-17T23:03:52.030Z,98574.40
2022-10-17T23:06:20.105Z,98570.20
2022-10-17T23:08:47.182Z,98575.80
2022-10-17T23:11:14.524Z,98571.60
2022-10-17T23:13:41.465Z,98571.00
2022-10-17T23:16:09.419Z,98572.60
2022-10-17T23:18:37.385Z,98570.80
2022-10-17T23:21:04.552Z,98567.60
2022-10-17T23:23:31.410Z,98566.60
2022-10-17T23:26:14.125Z,98567.00
2022-10-17T23:28:43.249Z,98566.20
2022-10-17T23:31:17.399Z,98567.00
2022-10-17T23:33:46.713Z,98560.80
2022-10-17T23:36:16.555Z,98567.80
2022-10-17T23:38:45.626Z,98564.80
2022-10-17T23:41:13.989Z,98567.40
2022-10-17T23:43:41.375Z,98562.40
2022-10-17T23:46:09.650Z,98560.20
2022-10-17T23:48:37.390Z,98558.60
2022-10-17T23:51:06.079Z,98561.80
2022-10-17T23:53:32.941Z,98565.20
2022-10-17T23:55:59.886Z,98563.00
2022-10-17T23:58:26.722Z,98560.60
